createdAt,value
2023-01-29T00:02:27.080Z,44.90
2023-01-29T00:05:25.487Z,44.90
2023-01-29T00:08:12.997Z,44.90
2023-01-29T00:10:52.945Z,44.90
2023-01-29T00:13:40.012Z,45.00
2023-01-29T00:16:19.962Z,45.10
2023-01-29T00:19:09.002Z,45.10
2023-01-29T00:21:48.940Z,45.20
2023-01-29T00:24:36.067Z,45.40
2023-01-29T00:27:15.958Z,46.40
2023-01-29T00:30:22.523Z,45.40
2023-01-29T00:33:08.943Z,45.50
2023-01-29T00:35:49.433Z,45.40
2023-01-29T00:38:35.929Z,45.60
2023-01-29T00:41:41.951Z,45.60
2023-01-29T00:44:46.931Z,45.80
2023-01-29T00:47:36.474Z,45.80
2023-01-29T00:50:24.971Z,45.80
2023-01-29T00:53:05.442Z,45.90
2023-01-29T00:55:51.954Z,46.90
2023-01-29T00:58:40.922Z,45.90
2023-01-29T01:01:47.509Z,45.90
2023-01-29T01:04:35.077Z,45.90
2023-01-29T01:07:15.007Z,46.00
2023-01-29T01:10:20.937Z,46.00
2023-01-29T01:13:09.938Z,46.10
2023-01-29T01:15:50.425Z,46.10
2023-01-29T01:18:36.947Z,46.30
2023-01-29T01:21:23.942Z,46.20
2023-01-29T01:24:11.949Z,46.20
2023-01-29T01:26:52.553Z,46.30
2023-01-29T01:29:38.925Z,46.30
2023-01-29T01:32:19.494Z,46.30
2023-01-29T01:35:06.927Z,46.30
2023-01-29T01:37:47.430Z,46.30
2023-01-29T01:40:35.935Z,46.40
2023-01-29T01:43:16.497Z,46.50
2023-01-29T01:46:02.978Z,46.60
2023-01-29T01:48:53.996Z,46.50
2023-01-29T01:51:36.947Z,46.60
2023-01-29T01:54:37.944Z,46.60
2023-01-29T01:57:30.095Z,46.60
2023-01-29T02:00:18.937Z,46.50
2023-01-29T02:03:25.920Z,46.50
2023-01-29T02:06:25.784Z,46.50
2023-01-29T02:09:37.942Z,47.40
2023-01-29T02:12:27.967Z,46.50
2023-01-29T02:15:15.018Z,46.60
2023-01-29T02:17:54.952Z,46.60
2023-01-29T02:20:35.925Z,46.60
2023-01-29T02:23:59.055Z,46.70
2023-01-29T02:27:03.009Z,46.90
2023-01-29T02:29:58.955Z,46.90
2023-01-29T02:32:59.331Z,46.90
2023-01-29T02:35:51.927Z,47.00
2023-01-29T02:38:46.683Z,47.00
2023-01-29T02:41:39.931Z,47.00
2023-01-29T02:44:23.348Z,47.00
2023-01-29T02:47:40.912Z,46.90
2023-01-29T02:50:49.947Z,47.00
2023-01-29T02:53:55.070Z,47.00
2023-01-29T02:56:59.945Z,46.80
2023-01-29T02:59:53.989Z,46.80
2023-01-29T03:03:25.951Z,46.90
2023-01-29T03:06:22.350Z,46.90
2023-01-29T03:09:18.950Z,46.80
2023-01-29T03:12:24.945Z,46.90
2023-01-29T03:15:11.763Z,48.00
2023-01-29T03:18:19.931Z,46.90
2023-01-29T03:21:37.636Z,46.80
2023-01-29T03:24:39.938Z,46.80
2023-01-29T03:27:43.554Z,46.80
2023-01-29T03:30:51.038Z,46.70
2023-01-29T03:34:34.929Z,46.70
2023-01-29T03:37:44.983Z,46.60
2023-01-29T03:40:32.939Z,46.60
2023-01-29T03:43:27.989Z,46.60
2023-01-29T03:46:25.929Z,46.70
2023-01-29T03:49:28.934Z,46.90
2023-01-29T03:52:59.928Z,46.90
2023-01-29T03:56:02.942Z,46.90
2023-01-29T03:58:58.941Z,46.90
2023-01-29T04:02:03.999Z,46.90
2023-01-29T04:04:53.948Z,46.90
2023-01-29T04:07:42.936Z,47.00
2023-01-29T04:10:33.957Z,46.90
2023-01-29T04:13:24.928Z,46.90
2023-01-29T04:16:16.072Z,46.90
2023-01-29T04:19:15.933Z,47.00
2023-01-29T04:22:18.931Z,47.00
2023-01-29T04:25:02.476Z,47.00
2023-01-29T04:28:14.935Z,47.00
2023-01-29T04:31:13.681Z,47.20
2023-01-29T04:34:31.974Z,47.10
2023-01-29T04:37:22.996Z,47.10
2023-01-29T04:40:25.952Z,47.10
2023-01-29T04:43:19.010Z,47.20
2023-01-29T04:46:14.910Z,47.10
2023-01-29T04:49:08.023Z,47.10
2023-01-29T04:52:04.912Z,47.20
2023-01-29T04:55:13.936Z,47.10
2023-01-29T04:58:20.929Z,47.10
2023-01-29T05:01:08.942Z,47.20
2023-01-29T05:03:53.258Z,47.20
2023-01-29T05:06:40.961Z,47.30
2023-01-29T05:09:22.224Z,47.30
2023-01-29T05:12:08.916Z,47.30
2023-01-29T05:14:50.924Z,47.30
2023-01-29T05:17:37.939Z,47.20
2023-01-29T05:20:18.882Z,47.40
2023-01-29T05:23:05.926Z,47.40
2023-01-29T05:25:48.230Z,47.40
2023-01-29T05:28:34.933Z,47.40
2023-01-29T05:31:15.598Z,47.30
2023-01-29T05:34:01.937Z,47.30
2023-01-29T05:36:48.921Z,47.20
2023-01-29T05:39:29.005Z,47.10
2023-01-29T05:42:15.932Z,47.10
2023-01-29T05:44:56.001Z,47.20
2023-01-29T05:47:42.940Z,47.10
2023-01-29T05:50:23.969Z,47.10
2023-01-29T05:53:11.941Z,47.00
2023-01-29T05:55:54.001Z,48.00
2023-01-29T05:58:41.940Z,47.00
2023-01-29T06:01:25.098Z,46.90
2023-01-29T06:04:11.926Z,46.80
2023-01-29T06:06:51.993Z,46.80
2023-01-29T06:09:38.945Z,46.80
2023-01-29T06:12:19.101Z,46.80
2023-01-29T06:15:05.925Z,46.80
2023-01-29T06:17:45.998Z,46.80
2023-01-29T06:20:32.932Z,46.70
2023-01-29T06:23:19.927Z,46.80
2023-01-29T06:26:08.938Z,46.70
2023-01-29T06:28:55.917Z,46.80
2023-01-29T06:31:43.060Z,46.70
2023-01-29T06:34:23.007Z,46.60
2023-01-29T06:37:09.934Z,46.50
2023-01-29T06:39:50.369Z,46.50
2023-01-29T06:42:36.920Z,46.50
2023-01-29T06:45:17.002Z,46.60
2023-01-29T06:48:03.929Z,46.40
2023-01-29T06:50:50.958Z,46.40
2023-01-29T06:53:32.777Z,46.40
2023-01-29T06:56:19.915Z,46.40
2023-01-29T06:59:00.456Z,46.20
2023-01-29T07:01:51.018Z,46.30
2023-01-29T07:04:31.512Z,46.30
2023-01-29T07:07:19.931Z,46.30
2023-01-29T07:10:00.444Z,46.30
2023-01-29T07:12:46.932Z,46.30
2023-01-29T07:15:37.165Z,46.10
2023-01-29T07:18:23.935Z,45.90
2023-01-29T07:21:12.980Z,46.00
2023-01-29T07:23:52.960Z,46.00
2023-01-29T07:26:33.407Z,45.80
2023-01-29T07:29:19.928Z,45.70
2023-01-29T07:32:07.911Z,45.70
2023-01-29T07:34:47.923Z,45.60
2023-01-29T07:37:34.940Z,45.50
2023-01-29T07:40:16.223Z,45.40
2023-01-29T07:43:07.952Z,45.50
2023-01-29T07:45:48.066Z,45.50
2023-01-29T07:48:34.940Z,45.60
2023-01-29T07:51:16.987Z,45.50
2023-01-29T07:54:03.914Z,45.40
2023-01-29T07:56:51.003Z,45.40
2023-01-29T07:59:30.941Z,45.40
2023-01-29T08:02:19.109Z,45.50
2023-01-29T08:04:58.951Z,45.50
2023-01-29T08:07:49.329Z,45.60
2023-01-29T08:10:43.929Z,45.60
2023-01-29T08:13:23.944Z,45.70
2023-01-29T08:16:05.205Z,45.50
2023-01-29T08:18:53.928Z,45.70
2023-01-29T08:21:34.476Z,45.70
2023-01-29T08:24:21.012Z,45.70
2023-01-29T08:27:07.983Z,45.80
2023-01-29T08:29:47.961Z,45.80
2023-01-29T08:32:28.423Z,45.70
2023-01-29T08:35:14.951Z,45.60
2023-01-29T08:38:01.057Z,45.70
2023-01-29T08:40:48.916Z,45.60
2023-01-29T08:43:36.993Z,45.60
2023-01-29T08:46:16.962Z,45.50
2023-01-29T08:48:57.581Z,45.60
2023-01-29T08:51:43.938Z,45.60
2023-01-29T08:54:24.493Z,45.40
2023-01-29T08:57:10.932Z,45.50
2023-01-29T08:59:51.684Z,45.60
2023-01-29T09:02:37.995Z,45.60
2023-01-29T09:05:18.773Z,46.50
2023-01-29T09:08:05.934Z,45.60
2023-01-29T09:10:46.412Z,45.60
2023-01-29T09:13:32.944Z,45.50
2023-01-29T09:16:13.612Z,45.40
2023-01-29T09:18:59.933Z,46.40
2023-01-29T09:21:40.420Z,45.40
2023-01-29T09:24:26.924Z,45.50
2023-01-29T09:27:07.570Z,45.60
2023-01-29T09:29:53.942Z,45.50
2023-01-29T09:32:52.587Z,45.30
2023-01-29T09:35:39.930Z,45.40
2023-01-29T09:38:20.801Z,45.50
2023-01-29T09:41:19.925Z,46.30
2023-01-29T09:44:04.704Z,45.40
2023-01-29T09:46:59.937Z,45.40
2023-01-29T09:49:52.925Z,45.40
2023-01-29T09:53:10.934Z,45.40
2023-01-29T09:56:24.933Z,45.30
2023-01-29T09:59:11.946Z,45.30
2023-01-29T10:02:33.048Z,45.30
2023-01-29T10:05:27.912Z,45.30
2023-01-29T10:08:17.932Z,45.30
2023-01-29T10:11:19.979Z,45.40
2023-01-29T10:14:52.923Z,45.30
2023-01-29T10:17:46.033Z,45.30
2023-01-29T10:20:51.928Z,45.20
2023-01-29T10:23:46.104Z,45.80
2023-01-29T10:26:37.006Z,45.60
2023-01-29T10:29:20.328Z,46.30
2023-01-29T10:32:11.965Z,44.90
2023-01-29T10:35:04.444Z,44.70
2023-01-29T10:37:55.913Z,44.30
2023-01-29T10:40:54.002Z,44.10
2023-01-29T10:43:52.907Z,43.80
2023-01-29T10:46:54.934Z,43.50
2023-01-29T10:49:51.921Z,43.30
2023-01-29T10:53:16.935Z,44.10
2023-01-29T10:56:22.394Z,43.10
2023-01-29T10:59:33.960Z,42.90
2023-01-29T11:02:18.606Z,43.70
2023-01-29T11:05:04.928Z,42.50
2023-01-29T11:07:46.095Z,42.40
2023-01-29T11:10:35.910Z,42.30
2023-01-29T11:13:24.925Z,42.30
2023-01-29T11:16:05.034Z,42.10
2023-01-29T11:19:06.929Z,42.00
2023-01-29T11:22:04.444Z,41.90
2023-01-29T11:24:50.953Z,41.80
2023-01-29T11:27:32.954Z,41.80
2023-01-29T11:30:28.034Z,41.60
2023-01-29T11:33:17.925Z,41.50
2023-01-29T11:35:59.016Z,41.50
2023-01-29T11:38:45.938Z,41.50
2023-01-29T11:41:32.932Z,41.60
2023-01-29T11:44:45.996Z,42.50
2023-01-29T11:47:30.925Z,41.50
2023-01-29T11:50:23.364Z,41.50
2023-01-29T11:53:13.926Z,41.40
2023-01-29T11:56:08.916Z,41.40
2023-01-29T11:58:57.941Z,41.40
2023-01-29T12:01:44.990Z,41.40
2023-01-29T12:04:32.929Z,41.30
2023-01-29T12:07:20.969Z,41.30
2023-01-29T12:10:07.955Z,41.30
2023-01-29T12:12:48.981Z,41.30
2023-01-29T12:15:35.907Z,41.40
2023-01-29T12:18:34.983Z,41.40
2023-01-29T12:21:29.914Z,41.20
2023-01-29T12:24:45.003Z,41.20
2023-01-29T12:27:35.928Z,41.20
2023-01-29T12:30:49.000Z,41.20
2023-01-29T12:33:38.143Z,41.20
2023-01-29T12:36:31.937Z,41.20
2023-01-29T12:39:21.987Z,41.20
2023-01-29T12:42:20.934Z,41.10
2023-01-29T12:45:06.436Z,41.00
2023-01-29T12:48:15.933Z,41.00
2023-01-29T12:51:09.936Z,41.00
2023-01-29T12:54:09.002Z,41.00
2023-01-29T12:56:59.987Z,41.00
2023-01-29T12:59:51.975Z,41.00
2023-01-29T13:03:01.962Z,41.00
2023-01-29T13:05:47.007Z,41.10
2023-01-29T13:08:41.932Z,41.00
2023-01-29T13:12:15.940Z,41.00
2023-01-29T13:15:03.644Z,41.00
2023-01-29T13:17:54.968Z,41.10
2023-01-29T13:20:35.612Z,41.00
2023-01-29T13:23:33.928Z,41.10
2023-01-29T13:26:19.103Z,41.10
2023-01-29T13:29:07.937Z,41.10
2023-01-29T13:31:55.970Z,41.10
2023-01-29T13:34:52.060Z,41.20
2023-01-29T13:37:53.943Z,41.00
2023-01-29T13:40:38.159Z,41.00
2023-01-29T13:43:28.944Z,41.00
2023-01-29T13:46:17.717Z,41.00
2023-01-29T13:49:06.933Z,41.00
2023-01-29T13:51:47.080Z,41.00
2023-01-29T13:54:33.947Z,41.00
2023-01-29T13:57:39.984Z,41.00
2023-01-29T14:00:30.983Z,41.00
2023-01-29T14:03:11.756Z,41.00
2023-01-29T14:06:11.922Z,41.00
2023-01-29T14:08:52.477Z,41.00
2023-01-29T14:11:47.924Z,41.10
2023-01-29T14:14:58.943Z,41.00
2023-01-29T14:17:46.913Z,41.00
2023-01-29T14:20:46.441Z,41.00
2023-01-29T14:23:56.921Z,41.00
2023-01-29T14:26:51.951Z,41.10
2023-01-29T14:29:35.510Z,41.00
2023-01-29T14:32:26.919Z,41.10
2023-01-29T14:35:17.273Z,41.10
2023-01-29T14:38:08.927Z,41.10
2023-01-29T14:40:51.992Z,41.10
2023-01-29T14:43:38.937Z,41.10
2023-01-29T14:46:41.053Z,41.10
2023-01-29T14:49:58.928Z,41.10
2023-01-29T14:52:56.933Z,41.20
2023-01-29T14:55:52.924Z,41.20
2023-01-29T14:58:44.956Z,41.20
2023-01-29T15:01:47.013Z,41.30
2023-01-29T15:04:45.917Z,41.30
2023-01-29T15:07:42.322Z,41.30
2023-01-29T15:10:41.924Z,41.30
2023-01-29T15:13:49.052Z,41.30
2023-01-29T15:17:07.944Z,41.30
2023-01-29T15:20:02.037Z,41.30
2023-01-29T15:22:44.253Z,41.30
2023-01-29T15:25:30.942Z,41.30
2023-01-29T15:28:11.818Z,41.40
2023-01-29T15:30:59.084Z,41.40
2023-01-29T15:33:50.924Z,41.40
2023-01-29T15:36:41.976Z,41.40
2023-01-29T15:39:24.607Z,41.40
2023-01-29T15:42:31.947Z,41.50
2023-01-29T15:45:46.990Z,41.60
2023-01-29T15:48:39.925Z,41.60
2023-01-29T15:51:30.957Z,41.70
2023-01-29T15:54:16.057Z,41.70
2023-01-29T15:57:03.963Z,41.60
2023-01-29T15:59:52.033Z,41.70
2023-01-29T16:02:46.978Z,41.70
2023-01-29T16:05:33.055Z,41.60
2023-01-29T16:08:21.978Z,41.60
2023-01-29T16:11:12.964Z,41.60
2023-01-29T16:14:00.017Z,41.60
2023-01-29T16:16:40.036Z,41.70
2023-01-29T16:19:24.459Z,41.80
2023-01-29T16:22:16.932Z,42.00
2023-01-29T16:25:08.936Z,42.00
2023-01-29T16:27:50.993Z,42.10
2023-01-29T16:30:37.951Z,42.20
2023-01-29T16:33:28.940Z,42.10
2023-01-29T16:36:21.932Z,42.20
2023-01-29T16:39:12.936Z,42.30
2023-01-29T16:42:27.925Z,42.30
2023-01-29T16:45:29.174Z,42.30
2023-01-29T16:48:44.921Z,42.30
2023-01-29T16:51:31.435Z,42.40
2023-01-29T16:54:28.921Z,42.40
2023-01-29T16:57:33.021Z,42.50
2023-01-29T17:00:35.063Z,42.50
2023-01-29T17:03:17.072Z,42.50
2023-01-29T17:06:03.933Z,42.60
2023-01-29T17:08:44.971Z,42.60
2023-01-29T17:11:47.935Z,42.60
2023-01-29T17:14:30.972Z,42.60
2023-01-29T17:17:22.937Z,42.60
2023-01-29T17:20:11.931Z,42.80
2023-01-29T17:22:58.948Z,42.70
2023-01-29T17:25:38.989Z,42.80
2023-01-29T17:28:25.950Z,42.80
2023-01-29T17:31:07.442Z,42.80
2023-01-29T17:33:53.936Z,42.80
2023-01-29T17:36:40.973Z,42.80
2023-01-29T17:39:25.500Z,42.70
2023-01-29T17:42:12.245Z,42.70
2023-01-29T17:44:58.933Z,42.70
2023-01-29T17:47:39.010Z,42.70
2023-01-29T17:50:29.954Z,42.70
2023-01-29T17:53:44.860Z,42.70
2023-01-29T17:56:40.931Z,42.70
2023-01-29T17:59:30.946Z,42.60
2023-01-29T18:02:28.899Z,42.60
2023-01-29T18:05:18.537Z,42.60
2023-01-29T18:08:06.942Z,42.60
2023-01-29T18:10:47.642Z,42.60
2023-01-29T18:13:33.922Z,42.50
2023-01-29T18:16:14.704Z,42.50
2023-01-29T18:19:01.945Z,42.50
2023-01-29T18:21:50.028Z,42.50
2023-01-29T18:24:29.927Z,42.50
2023-01-29T18:27:11.562Z,42.50
2023-01-29T18:29:57.936Z,42.50
2023-01-29T18:32:38.856Z,42.60
2023-01-29T18:35:25.939Z,42.50
2023-01-29T18:38:06.461Z,42.60
2023-01-29T18:40:52.995Z,42.60
2023-01-29T18:43:39.945Z,42.60
2023-01-29T18:46:20.050Z,42.70
2023-01-29T18:49:07.056Z,42.70
2023-01-29T18:51:47.136Z,42.80
2023-01-29T18:54:33.950Z,42.80
2023-01-29T18:58:28.124Z,42.80
2023-01-29T19:00:20.956Z,42.80
2023-01-29T19:03:08.923Z,42.90
2023-01-29T19:05:48.996Z,42.90
2023-01-29T19:08:36.954Z,43.00
2023-01-29T19:11:17.052Z,43.00
2023-01-29T19:14:03.990Z,43.00
2023-01-29T19:16:44.171Z,43.40
2023-01-29T19:19:32.017Z,43.00
2023-01-29T19:22:11.946Z,43.10
2023-01-29T19:24:58.957Z,43.00
2023-01-29T19:27:39.503Z,43.20
2023-01-29T19:30:25.990Z,43.20
2023-01-29T19:33:06.448Z,43.20
2023-01-29T19:35:56.941Z,43.30
2023-01-29T19:38:44.009Z,43.30
2023-01-29T19:41:23.952Z,43.30
2023-01-29T19:44:10.923Z,43.30
2023-01-29T19:46:51.210Z,43.40
2023-01-29T19:49:37.944Z,43.40
2023-01-29T19:52:50.199Z,43.40
2023-01-29T19:55:36.947Z,43.40
2023-01-29T19:58:24.984Z,43.40
2023-01-29T20:01:08.022Z,43.40
2023-01-29T20:03:55.985Z,43.40
2023-01-29T20:06:39.944Z,43.50
2023-01-29T20:09:29.328Z,44.60
2023-01-29T20:12:08.948Z,43.60
2023-01-29T20:14:55.991Z,43.60
2023-01-29T20:17:35.969Z,43.60
2023-01-29T20:20:17.610Z,43.60
2023-01-29T20:23:04.913Z,43.60
2023-01-29T20:25:44.961Z,43.60
2023-01-29T20:28:31.962Z,43.60
2023-01-29T20:31:19.971Z,43.60
2023-01-29T20:34:07.068Z,43.60
2023-01-29T20:36:46.980Z,43.80
2023-01-29T20:39:33.946Z,43.80
2023-01-29T20:42:20.935Z,43.80
2023-01-29T20:45:01.435Z,43.90
2023-01-29T20:47:47.930Z,43.90
2023-01-29T20:50:35.007Z,43.80
2023-01-29T20:53:16.944Z,43.90
2023-01-29T20:56:04.799Z,43.90
2023-01-29T20:58:58.946Z,43.90
2023-01-29T21:01:39.438Z,44.00
2023-01-29T21:04:25.955Z,44.00
2023-01-29T21:07:06.419Z,44.10
2023-01-29T21:09:52.944Z,44.10
2023-01-29T21:12:39.992Z,44.30
2023-01-29T21:15:19.949Z,44.40
2023-01-29T21:18:07.124Z,44.70
2023-01-29T21:20:46.944Z,45.30
2023-01-29T21:23:27.446Z,45.90
2023-01-29T21:26:15.967Z,46.40
2023-01-29T21:28:56.519Z,46.80
2023-01-29T21:31:43.001Z,47.30
2023-01-29T21:34:29.941Z,47.60
2023-01-29T21:37:16.965Z,48.10
2023-01-29T21:40:04.003Z,49.40
2023-01-29T21:43:02.953Z,48.80
2023-01-29T21:45:43.856Z,49.00
2023-01-29T21:48:30.929Z,49.40
2023-01-29T21:51:18.953Z,49.70
2023-01-29T21:53:58.934Z,49.90
2023-01-29T21:56:45.950Z,50.10
2023-01-29T21:59:32.930Z,50.40
2023-01-29T22:02:17.185Z,50.70
2023-01-29T22:05:18.108Z,50.90
2023-01-29T22:07:59.412Z,51.10
2023-01-29T22:10:45.951Z,51.30
2023-01-29T22:13:26.416Z,51.50
2023-01-29T22:16:12.974Z,51.80
2023-01-29T22:18:59.928Z,51.90
2023-01-29T22:21:46.982Z,52.10
2023-01-29T22:24:27.432Z,52.10
2023-01-29T22:27:13.933Z,52.30
2023-01-29T22:30:00.944Z,52.40
2023-01-29T22:32:47.924Z,52.80
2023-01-29T22:35:35.008Z,52.90
2023-01-29T22:38:14.946Z,53.20
2023-01-29T22:40:57.134Z,53.40
2023-01-29T22:43:43.946Z,53.50
2023-01-29T22:46:24.409Z,53.50
2023-01-29T22:49:10.948Z,53.80
2023-01-29T22:52:15.932Z,54.10
2023-01-29T22:54:56.797Z,54.30
2023-01-29T22:57:50.938Z,54.50
2023-01-29T23:00:31.470Z,54.70
2023-01-29T23:03:17.966Z,54.80
2023-01-29T23:06:04.941Z,54.90
2023-01-29T23:08:45.003Z,55.30
2023-01-29T23:11:31.949Z,55.50
2023-01-29T23:14:11.998Z,55.60
2023-01-29T23:16:58.937Z,55.70
2023-01-29T23:19:39.009Z,55.80
2023-01-29T23:22:25.940Z,55.90
2023-01-29T23:25:12.933Z,56.10
2023-01-29T23:27:53.421Z,56.30
2023-01-29T23:30:41.992Z,57.50
2023-01-29T23:33:29.017Z,56.60
2023-01-29T23:36:08.967Z,56.80
2023-01-29T23:38:49.431Z,56.90
2023-01-29T23:41:35.972Z,57.00
2023-01-29T23:44:16.515Z,57.10
2023-01-29T23:47:02.941Z,57.30
2023-01-29T23:49:43.429Z,57.30
2023-01-29T23:52:29.957Z,57.40
2023-01-29T23:55:16.947Z,57.40
2023-01-29T23:58:10.941Z,57.50
